Time;durP1;ratioP1;P1;durP2;ratioP2;P2;SDS_P1;SDS_P2;PMS_P1;PMS_P2;Temp;Humidity;BMP_temperature;BMP_pressure;BME280_temperature;BME280_humidity;BME280_pressure;Samples;Min_cycle;Max_cycle;Signal;HPM_P1;HPM_P2
2022/03/25 00:00:01;;;;;;;33.50;27.80;;;6.30;99.90;;;;;;4954787;29;20461;-72
2022/03/25 00:02:28;;;;;;;33.97;28.87;;;6.30;99.90;;;;;;4954788;29;20462;-72
2022/03/25 00:04:55;;;;;;;36.47;28.00;;;6.30;99.90;;;;;;4954536;29;20463;-72
2022/03/25 00:07:22;;;;;;;32.20;26.90;;;6.40;99.90;;;;;;4954580;29;20826;-72
2022/03/25 00:09:50;;;;;;;37.73;28.83;;;6.30;99.90;;;;;;4954384;29;20487;-72
2022/03/25 00:12:16;;;;;;;37.50;29.70;;;6.30;99.90;;;;;;4954613;29;20458;-72
2022/03/25 00:14:43;;;;;;;32.70;29.20;;;6.20;99.90;;;;;;4954446;29;20455;-72
2022/03/25 00:17:10;;;;;;;34.37;28.00;;;6.10;99.90;;;;;;4954436;29;20918;-72
2022/03/25 00:19:36;;;;;;;34.17;29.40;;;6.00;99.90;;;;;;4954193;29;20464;-72
2022/03/25 00:22:03;;;;;;;34.40;30.70;;;5.90;99.90;;;;;;4954530;29;20455;-72
2022/03/25 00:24:30;;;;;;;34.37;30.30;;;5.70;99.90;;;;;;4954684;29;20453;-72
2022/03/25 00:26:58;;;;;;;35.60;28.60;;;5.50;99.90;;;;;;4954183;29;21045;-72
2022/03/25 00:29:26;;;;;;;37.20;29.23;;;5.50;99.90;;;;;;4954108;29;20449;-72
2022/03/25 00:31:52;;;;;;;40.97;29.27;;;5.40;99.90;;;;;;4954088;29;20457;-72
2022/03/25 00:34:19;;;;;;;38.57;29.40;;;5.30;99.90;;;;;;4953928;29;20821;-72
2022/03/25 00:36:46;;;;;;;39.57;34.03;;;5.30;99.90;;;;;;4954276;29;20462;-72
2022/03/25 00:39:12;;;;;;;40.23;32.73;;;5.20;99.90;;;;;;4954007;29;20453;-71
2022/03/25 03:51:29;;;;;;;27.43;24.83;;;4.60;99.90;;;;;;5017274;23;20490;-75
2022/03/25 03:53:56;;;;;;;27.17;24.40;;;4.50;99.90;;;;;;4993077;28;20485;-76
2022/03/25 03:56:23;;;;;;;29.40;26.30;;;4.50;99.90;;;;;;4992830;28;20453;-75
2022/03/25 03:58:49;;;;;;;35.93;26.90;;;4.50;99.90;;;;;;4992695;28;20573;-75
2022/03/25 04:01:16;;;;;;;30.00;25.57;;;4.40;99.90;;;;;;4992581;28;20462;-75
2022/03/25 04:03:43;;;;;;;27.77;24.90;;;4.40;99.90;;;;;;4992290;28;20487;-75
2022/03/25 04:06:10;;;;;;;33.97;26.10;;;4.40;99.90;;;;;;4992337;28;20458;-74
2022/03/25 04:08:38;;;;;;;31.30;27.50;;;4.40;99.90;;;;;;4993143;28;20485;-75
2022/03/25 04:11:04;;;;;;;34.87;26.93;;;4.40;99.90;;;;;;4992971;28;20506;-75
2022/03/25 04:13:31;;;;;;;31.60;27.90;;;4.40;99.90;;;;;;4992873;28;20509;-76
2022/03/25 04:15:58;;;;;;;30.47;26.80;;;4.40;99.90;;;;;;4992718;28;20993;-76
2022/03/25 04:18:25;;;;;;;31.90;27.27;;;4.40;99.90;;;;;;4992652;28;20900;-76
2022/03/25 04:20:52;;;;;;;28.40;25.47;;;4.40;99.90;;;;;;4992599;28;20461;-75
2022/03/25 04:23:18;;;;;;;29.43;26.30;;;4.30;99.90;;;;;;4992730;28;20455;-76
2022/03/25 04:25:46;;;;;;;28.70;25.70;;;4.30;99.90;;;;;;4992659;28;20454;-76
2022/03/25 04:28:13;;;;;;;28.73;25.90;;;4.30;99.90;;;;;;4992639;28;20447;-76
2022/03/25 04:30:40;;;;;;;29.83;26.00;;;4.30;99.90;;;;;;4992481;28;20516;-76
2022/03/25 04:33:07;;;;;;;31.80;26.80;;;4.30;99.90;;;;;;4991847;28;20463;-76
2022/03/25 04:35:34;;;;;;;30.37;27.13;;;4.40;99.90;;;;;;4992497;28;20536;-75
2022/03/25 04:38:02;;;;;;;30.00;26.93;;;4.50;99.90;;;;;;4992361;28;20487;-74
2022/03/25 04:40:30;;;;;;;27.90;24.83;;;4.50;99.90;;;;;;4992354;28;20553;-75
2022/03/25 04:43:00;;;;;;;35.13;24.50;;;4.50;99.90;;;;;;4992235;28;20461;-75
2022/03/25 04:45:28;;;;;;;33.20;25.97;;;4.50;99.90;;;;;;4992188;28;20462;-75
2022/03/25 04:47:55;;;;;;;25.83;23.13;;;4.40;99.90;;;;;;4992199;28;20451;-75
2022/03/25 04:50:22;;;;;;;29.50;23.60;;;4.40;99.90;;;;;;4992096;28;20493;-76
2022/03/25 04:52:50;;;;;;;28.23;24.30;;;4.40;99.90;;;;;;4992400;28;20790;-75
2022/03/25 04:55:17;;;;;;;29.47;25.03;;;4.30;99.90;;;;;;4992040;28;20513;-73
2022/03/25 04:57:45;;;;;;;32.63;25.93;;;4.30;99.90;;;;;;4991617;28;20491;-73
2022/03/25 05:00:14;;;;;;;27.70;24.70;;;4.30;99.90;;;;;;4991796;28;20508;-73
2022/03/25 05:02:41;;;;;;;28.73;25.63;;;4.30;99.90;;;;;;4991777;28;20450;-76
2022/03/25 05:05:08;;;;;;;30.73;26.23;;;4.30;99.90;;;;;;4991828;28;20452;-75
2022/03/25 05:07:35;;;;;;;27.83;24.93;;;4.30;99.90;;;;;;4991967;28;20509;-76
2022/03/25 05:10:02;;;;;;;33.30;26.27;;;4.30;99.90;;;;;;4991969;28;20501;-76
2022/03/25 05:12:30;;;;;;;27.03;23.90;;;4.30;99.90;;;;;;4992015;28;20501;-75
2022/03/25 05:14:56;;;;;;;28.63;25.60;;;4.20;99.90;;;;;;4992248;28;20465;-75
2022/03/25 05:17:24;;;;;;;30.67;25.77;;;4.20;99.90;;;;;;4992068;28;20457;-75
2022/03/25 05:19:51;;;;;;;29.63;26.40;;;4.20;99.90;;;;;;4991604;28;20459;-75
2022/03/25 05:22:18;;;;;;;29.33;23.03;;;4.20;99.90;;;;;;4992022;28;20459;-75
2022/03/25 05:24:44;;;;;;;32.47;26.17;;;4.10;99.90;;;;;;4991704;28;20482;-76
2022/03/25 05:27:11;;;;;;;28.63;25.60;;;4.10;99.90;;;;;;4991450;28;20829;-75
2022/03/25 05:29:38;;;;;;;30.27;25.90;;;4.10;99.90;;;;;;4991578;28;20860;-76
2022/03/25 05:32:05;;;;;;;28.90;25.90;;;4.10;99.90;;;;;;4991775;28;20513;-76
2022/03/25 05:34:33;;;;;;;34.33;25.30;;;4.10;99.90;;;;;;4992603;28;20461;-77
2022/03/25 05:37:00;;;;;;;31.43;25.70;;;4.20;99.90;;;;;;4991969;28;20457;-77
2022/03/25 05:39:26;;;;;;;29.23;25.70;;;4.20;99.90;;;;;;4991714;28;20490;-77
2022/03/25 05:41:53;;;;;;;28.63;23.30;;;4.20;99.90;;;;;;4991753;28;20527;-76
2022/03/25 05:44:20;;;;;;;27.27;23.53;;;4.20;99.90;;;;;;4990864;28;20489;-77
2022/03/25 05:46:46;;;;;;;26.63;23.90;;;4.20;99.90;;;;;;4991485;28;20689;-76
2022/03/25 05:49:13;;;;;;;28.90;23.90;;;4.20;99.90;;;;;;4991343;28;20521;-74
2022/03/25 05:51:41;;;;;;;29.07;24.47;;;4.20;99.90;;;;;;4991370;28;20458;-75
2022/03/25 05:54:08;;;;;;;28.30;25.30;;;4.20;99.90;;;;;;4991585;28;20454;-76
2022/03/25 05:56:35;;;;;;;30.13;25.10;;;4.20;99.90;;;;;;4991808;28;20459;-74
2022/03/25 05:59:01;;;;;;;28.50;23.60;;;4.30;99.90;;;;;;4991071;28;20490;-74
2022/03/25 06:01:29;;;;;;;27.93;24.23;;;4.30;99.90;;;;;;4991479;28;20457;-74
2022/03/25 06:03:55;;;;;;;28.73;25.70;;;4.30;99.90;;;;;;4991166;28;20504;-74
2022/03/25 06:06:22;;;;;;;30.30;23.63;;;4.40;99.90;;;;;;4991632;28;20447;-75
2022/03/25 06:08:50;;;;;;;37.60;25.90;;;4.50;99.90;;;;;;4991612;28;20940;-74
2022/03/25 06:11:18;;;;;;;34.37;26.23;;;4.80;99.90;;;;;;4991453;28;20465;-76
2022/03/25 06:13:45;;;;;;;29.53;25.80;;;5.10;99.90;;;;;;4991432;28;20466;-75
2022/03/25 06:16:11;;;;;;;29.30;26.07;;;5.30;99.90;;;;;;4991232;28;20615;-74
2022/03/25 06:18:38;;;;;;;38.70;28.37;;;5.40;99.90;;;;;;4990965;28;20489;-75
2022/03/25 06:21:05;;;;;;;32.53;25.97;;;5.60;99.90;;;;;;4991456;28;20949;-76
2022/03/25 06:23:31;;;;;;;32.00;26.67;;;5.70;99.90;;;;;;4991098;28;20466;-75
2022/03/25 06:25:59;;;;;;;31.00;26.63;;;5.90;99.90;;;;;;4991165;28;20526;-75
2022/03/25 06:28:26;;;;;;;31.73;25.50;;;6.10;99.90;;;;;;4991197;28;20875;-76
2022/03/25 06:30:53;;;;;;;34.13;25.77;;;6.30;99.90;;;;;;4991207;28;20545;-75
2022/03/25 06:33:19;;;;;;;34.47;25.80;;;6.40;99.90;;;;;;4991198;28;20512;-76
2022/03/25 06:35:46;;;;;;;29.13;26.20;;;6.60;99.90;;;;;;4990968;28;20461;-74
2022/03/25 06:38:13;;;;;;;27.70;24.80;;;6.80;99.90;;;;;;4990851;28;20486;-75
2022/03/25 06:40:40;;;;;;;30.77;26.37;;;6.90;99.90;;;;;;4990788;28;20453;-75
2022/03/25 06:43:08;;;;;;;31.50;27.30;;;7.00;99.90;;;;;;4990997;28;20458;-76
2022/03/25 06:45:35;;;;;;;30.93;27.60;;;7.20;99.90;;;;;;4991391;28;20459;-74
2022/03/25 06:48:01;;;;;;;34.67;28.10;;;7.50;99.90;;;;;;4990725;28;20485;-72
2022/03/25 06:50:29;;;;;;;32.40;26.57;;;7.80;99.90;;;;;;4990287;28;20485;-73
2022/03/25 06:52:57;;;;;;;33.70;28.30;;;8.00;99.90;;;;;;4990756;28;20457;-73
2022/03/25 06:55:24;;;;;;;31.60;28.20;;;8.10;99.70;;;;;;4992521;28;20546;-73
2022/03/25 06:57:52;;;;;;;37.17;29.47;;;8.20;99.40;;;;;;4994412;28;20458;-73
2022/03/25 07:00:22;;;;;;;31.83;28.20;;;8.40;98.70;;;;;;4994385;28;20443;-74
2022/03/25 07:02:50;;;;;;;29.60;24.20;;;8.50;98.50;;;;;;4994540;28;20557;-75
2022/03/25 07:05:17;;;;;;;28.50;25.80;;;8.70;97.80;;;;;;4994135;28;21131;-74
2022/03/25 07:07:44;;;;;;;32.33;28.90;;;8.90;97.30;;;;;;4994092;28;20450;-76
2022/03/25 07:10:13;;;;;;;30.77;27.37;;;9.00;96.80;;;;;;4993849;28;20443;-72
2022/03/25 07:12:41;;;;;;;30.10;26.93;;;9.00;96.30;;;;;;4993675;28;20455;-72
2022/03/25 07:15:09;;;;;;;31.87;28.10;;;9.30;96.30;;;;;;4993470;28;20509;-74
2022/03/25 07:17:38;;;;;;;34.03;28.27;;;9.60;95.20;;;;;;4993122;28;20872;-73
2022/03/25 07:20:06;;;;;;;32.93;28.63;;;9.90;94.90;;;;;;4992986;28;20531;-73
2022/03/25 07:22:34;;;;;;;31.30;27.23;;;9.90;94.50;;;;;;4993086;28;20505;-73
2022/03/25 07:25:01;;;;;;;32.60;28.47;;;10.20;93.60;;;;;;4993384;28;20520;-73
2022/03/25 07:27:28;;;;;;;38.67;27.23;;;10.40;92.90;;;;;;4993522;28;20454;-74
2022/03/25 07:29:55;;;;;;;30.10;27.00;;;10.60;92.10;;;;;;4985108;28;20466;-72
2022/03/25 07:32:21;;;;;;;32.27;29.03;;;11.10;91.40;;;;;;4974854;28;20974;-71
2022/03/25 07:34:49;;;;;;;32.50;29.30;;;11.40;90.10;;;;;;4973930;28;20467;-73
2022/03/25 07:37:16;;;;;;;32.90;29.80;;;11.30;89.90;;;;;;4974176;28;20518;-72
2022/03/25 07:39:44;;;;;;;29.20;26.23;;;11.60;88.40;;;;;;4974132;28;20546;-72
2022/03/25 07:42:10;;;;;;;31.83;28.70;;;11.60;86.80;;;;;;4974118;28;21340;-72
2022/03/25 07:44:39;;;;;;;31.90;29.20;;;11.80;87.90;;;;;;4973984;28;20455;-72
2022/03/25 07:47:06;;;;;;;34.47;31.10;;;12.40;84.70;;;;;;4974299;28;20957;-73
2022/03/25 07:49:34;;;;;;;32.23;29.00;;;12.70;83.80;;;;;;4973910;28;20488;-73
2022/03/25 07:52:02;;;;;;;31.50;28.50;;;12.80;82.30;;;;;;4974192;28;20463;-72
2022/03/25 07:54:29;;;;;;;32.40;29.40;;;13.30;80.80;;;;;;4973948;28;20950;-73
2022/03/25 07:56:58;;;;;;;32.90;29.70;;;13.70;78.70;;;;;;4973738;28;20487;-72
2022/03/25 07:59:25;;;;;;;35.17;31.87;;;14.40;76.60;;;;;;4973744;28;20562;-73
2022/03/25 08:01:52;;;;;;;34.07;30.80;;;14.90;73.20;;;;;;4973766;28;20871;-71
2022/03/25 08:04:20;;;;;;;32.90;29.70;;;15.20;70.90;;;;;;4973796;28;20535;-72
2022/03/25 08:06:47;;;;;;;33.83;30.80;;;15.50;70.30;;;;;;4972592;28;20538;-72
2022/03/25 08:09:15;;;;;;;35.23;32.13;;;15.30;67.90;;;;;;4973590;28;20456;-72
2022/03/25 08:11:41;;;;;;;34.80;31.20;;;15.50;68.10;;;;;;4973497;28;20470;-73
2022/03/25 08:14:08;;;;;;;35.37;31.90;;;15.70;67.40;;;;;;4975098;28;20475;-72
2022/03/25 08:16:35;;;;;;;35.17;32.00;;;15.90;65.80;;;;;;4980657;28;20460;-72
2022/03/25 08:19:01;;;;;;;35.67;32.50;;;15.80;64.80;;;;;;4988061;28;21074;-72
2022/03/25 08:21:28;;;;;;;35.37;31.87;;;16.30;63.60;;;;;;4992686;28;20450;-73
2022/03/25 08:29:24;;;;;;;36.10;32.80;;;17.90;58.70;;;;;;4977462;28;20449;-74
2022/03/25 08:31:51;;;;;;;38.07;34.57;;;18.10;57.10;;;;;;4991313;28;20500;-74
2022/03/25 08:34:18;;;;;;;41.10;34.60;;;18.40;56.70;;;;;;4983572;28;20957;-74
2022/03/25 08:36:47;;;;;;;39.37;35.10;;;18.80;55.60;;;;;;4973031;28;20490;-74
2022/03/25 08:39:15;;;;;;;39.80;35.50;;;19.40;55.20;;;;;;4972978;28;20495;-73
2022/03/25 08:41:43;;;;;;;39.67;36.07;;;19.80;53.90;;;;;;4972985;28;20585;-74
2022/03/25 08:44:10;;;;;;;46.00;37.17;;;20.30;52.40;;;;;;4973053;28;20452;-75
2022/03/25 08:46:38;;;;;;;39.47;35.87;;;20.60;52.00;;;;;;4972929;28;20891;-73
2022/03/25 08:49:06;;;;;;;42.07;37.80;;;21.20;50.50;;;;;;4972794;28;21210;-73
2022/03/25 08:51:32;;;;;;;41.37;37.00;;;21.70;49.20;;;;;;4972670;28;20547;-74
2022/03/25 08:53:59;;;;;;;41.53;37.50;;;21.70;47.90;;;;;;4972673;28;20490;-74
2022/03/25 08:56:27;;;;;;;41.83;37.80;;;22.30;47.10;;;;;;4972486;28;20962;-74
2022/03/25 08:58:58;;;;;;;43.73;39.23;;;22.70;45.10;;;;;;4972728;28;20491;-74
2022/03/25 09:01:25;;;;;;;44.03;39.53;;;21.90;45.30;;;;;;4972819;28;20470;-73
2022/03/25 09:03:51;;;;;;;43.10;38.77;;;22.00;45.40;;;;;;4972753;28;20467;-74
2022/03/25 09:06:18;;;;;;;41.07;37.23;;;22.90;55.60;;;;;;4972579;28;20459;-75
2022/03/25 09:08:45;;;;;;;43.83;39.87;;;22.80;50.60;;;;;;4972556;28;20479;-74
2022/03/25 09:11:11;;;;;;;123.47;48.90;;;23.00;42.40;;;;;;4972505;28;21225;-74
2022/03/25 09:13:40;;;;;;;42.77;38.50;;;23.00;42.30;;;;;;4972445;28;20953;-73
2022/03/25 09:16:09;;;;;;;43.03;39.00;;;22.90;42.20;;;;;;4972580;28;20460;-73
2022/03/25 09:18:35;;;;;;;142.53;53.83;;;23.30;42.00;;;;;;4972278;28;20464;-75
2022/03/25 09:21:02;;;;;;;60.63;44.53;;;;;;;;;;4972559;28;20506;-75
2022/03/25 09:23:29;;;;;;;124.63;50.87;;;24.70;40.60;;;;;;4972297;28;20515;-73
2022/03/25 09:25:56;;;;;;;72.97;45.47;;;25.10;39.00;;;;;;4972428;28;21067;-76
2022/03/25 09:28:23;;;;;;;42.50;38.80;;;25.50;39.30;;;;;;4972280;28;20938;-73
2022/03/25 09:30:49;;;;;;;51.67;41.60;;;25.90;38.10;;;;;;4972434;28;20471;-75
2022/03/25 09:33:17;;;;;;;45.03;40.73;;;26.10;36.80;;;;;;4972313;28;20462;-75
2022/03/25 09:35:45;;;;;;;42.73;38.57;;;26.50;36.70;;;;;;4972288;28;20455;-75
2022/03/25 09:38:12;;;;;;;45.00;41.07;;;26.90;34.90;;;;;;4972263;28;20459;-73
2022/03/25 09:40:41;;;;;;;43.37;39.20;;;25.70;35.50;;;;;;4972078;28;20586;-74
2022/03/25 09:43:07;;;;;;;46.10;41.67;;;25.70;35.60;;;;;;4972325;28;20483;-75
2022/03/25 09:45:35;;;;;;;45.67;41.87;;;25.40;35.40;;;;;;4974531;28;20455;-77
2022/03/25 09:48:02;;;;;;;44.40;39.73;;;26.10;34.80;;;;;;4991444;28;20505;-74
2022/03/25 09:50:31;;;;;;;44.97;40.63;;;25.30;34.80;;;;;;4981854;28;20831;-73
2022/03/25 09:52:58;;;;;;;44.17;40.33;;;26.00;34.50;;;;;;4991521;28;20754;-75
2022/03/25 09:55:24;;;;;;;43.53;40.03;;;26.30;32.90;;;;;;4991577;28;20458;-74
2022/03/25 09:57:51;;;;;;;43.20;39.60;;;27.50;31.50;;;;;;4990077;28;20545;-74
2022/03/25 10:00:20;;;;;;;47.30;43.30;;;28.10;30.00;;;;;;4989016;28;20490;-73
2022/03/25 10:02:47;;;;;;;46.20;42.20;;;28.50;29.40;;;;;;4991214;28;20521;-74
2022/03/25 10:05:16;;;;;;;45.03;41.30;;;28.80;29.40;;;;;;4990753;28;20463;-74
2022/03/25 10:07:47;;;;;;;45.30;41.50;;;27.60;30.00;;;;;;4990725;28;20554;-75
2022/03/25 10:10:16;;;;;;;45.87;41.60;;;27.20;31.30;;;;;;4990827;28;20542;-73
2022/03/25 10:12:44;;;;;;;44.27;40.70;;;27.20;31.70;;;;;;4991134;28;20459;-74
2022/03/25 10:15:14;;;;;;;44.97;40.40;;;27.30;32.20;;;;;;4991056;28;21028;-73
2022/03/25 10:17:50;;;;;;;43.20;39.53;;;25.20;33.40;;;;;;4991249;28;20509;-76
2022/03/25 10:20:17;;;;;;;46.07;42.17;;;25.00;35.20;;;;;;4991204;28;20493;-75
2022/03/25 10:23:03;;;;;;;50.37;44.20;;;26.10;33.50;;;;;;4991241;28;20455;-74
2022/03/25 10:25:34;;;;;;;47.20;42.57;;;26.40;32.70;;;;;;4991861;28;20548;-80
2022/03/25 10:28:01;;;;;;;46.50;42.60;;;26.80;32.30;;;;;;4991882;28;20458;-80
2022/03/25 10:30:36;;;;;;;46.70;42.40;;;27.50;32.30;;;;;;4993639;28;20454;-80
2022/03/25 10:33:09;;;;;;;45.77;41.73;;;28.20;36.80;;;;;;4995058;28;21002;-80
2022/03/25 10:35:55;;;;;;;48.10;43.90;;;27.80;31.40;;;;;;4993067;28;20528;-79
2022/03/25 10:38:23;;;;;;;45.90;41.90;;;28.10;31.00;;;;;;4995029;28;20454;-80
2022/03/25 10:40:51;;;;;;;46.70;42.70;;;28.30;30.60;;;;;;4994751;28;20533;-78
2022/03/25 10:43:18;;;;;;;45.47;41.70;;;28.20;30.70;;;;;;4994909;28;20451;-79
2022/03/25 10:45:45;;;;;;;46.63;42.80;;;28.70;30.20;;;;;;4994730;28;20834;-79
2022/03/25 10:48:14;;;;;;;46.80;42.70;;;28.40;29.50;;;;;;4994109;28;20550;-77
2022/03/25 10:51:10;;;;;;;46.90;42.97;;;29.10;29.00;;;;;;4994173;28;20988;-79
2022/03/25 10:53:43;;;;;;;47.70;43.90;;;28.40;29.10;;;;;;4950005;28;20986;-79
2022/03/25 10:56:11;;;;;;;43.67;40.00;;;28.20;29.70;;;;;;4994214;28;20450;-79
2022/03/25 10:58:37;;;;;;;46.47;42.50;;;28.60;28.80;;;;;;4994454;28;20450;-78
2022/03/25 11:01:06;;;;;;;44.60;40.90;;;28.70;28.60;;;;;;4994371;28;20537;-79
2022/03/25 11:03:34;;;;;;;45.97;41.97;;;28.80;28.20;;;;;;4994151;28;20454;-78
2022/03/25 11:06:01;;;;;;;43.33;39.93;;;29.30;28.10;;;;;;4994284;28;20450;-78
2022/03/25 11:08:29;;;;;;;42.47;38.97;;;29.50;27.40;;;;;;4994265;28;20838;-78
2022/03/25 11:10:58;;;;;;;42.57;39.17;;;28.70;27.90;;;;;;4994427;28;20544;-79
2022/03/25 11:13:26;;;;;;;43.03;39.53;;;29.00;28.20;;;;;;4993759;28;20937;-77
2022/03/25 11:15:55;;;;;;;42.43;38.80;;;29.30;27.90;;;;;;4994273;28;20461;-79
2022/03/25 11:18:22;;;;;;;42.33;39.03;;;29.80;26.90;;;;;;4993907;28;20866;-79
2022/03/25 11:20:52;;;;;;;41.90;38.40;;;30.20;26.60;;;;;;4993510;28;20455;-77
2022/03/25 11:23:24;;;;;;;41.50;38.20;;;29.60;26.70;;;;;;4995036;28;20549;-80
2022/03/25 11:25:53;;;;;;;42.07;38.63;;;30.30;33.50;;;;;;4994407;28;20474;-79
2022/03/25 11:28:29;;;;;;;43.47;40.10;;;29.60;26.10;;;;;;4993778;28;20461;-77
2022/03/25 11:31:00;;;;;;;41.90;38.80;;;29.60;26.10;;;;;;4993602;28;20627;-78
2022/03/25 11:33:28;;;;;;;42.83;39.43;;;29.40;26.30;;;;;;4993458;28;20451;-78
2022/03/25 11:36:14;;;;;;;42.43;39.13;;;28.70;26.70;;;;;;4993603;28;20454;-77
2022/03/25 11:38:41;;;;;;;41.27;37.87;;;28.30;27.30;;;;;;4994201;28;20489;-77
2022/03/25 11:41:25;;;;;;;41.40;38.00;;;28.20;27.20;;;;;;4993805;28;20458;-77
2022/03/25 11:44:23;;;;;;;42.53;39.00;;;27.50;27.60;;;;;;4994022;28;20859;-78
2022/03/25 11:47:14;;;;;;;40.23;37.00;;;27.60;28.10;;;;;;4993552;28;20857;-76
2022/03/25 11:49:41;;;;;;;38.90;35.70;;;27.80;27.10;;;;;;4983646;28;20501;-76
2022/03/25 11:52:27;;;;;;;39.47;36.30;;;27.90;27.10;;;;;;4993345;28;20969;-78
2022/03/25 11:54:55;;;;;;;41.40;38.17;;;27.40;26.30;;;;;;4993167;28;21011;-77
2022/03/25 11:57:24;;;;;;;40.57;37.33;;;27.00;27.70;;;;;;4993129;28;20507;-77
2022/03/25 11:59:53;;;;;;;35.40;32.80;;;26.40;28.10;;;;;;4993492;28;20467;-76
2022/03/25 12:02:40;;;;;;;39.00;35.63;;;25.70;26.90;;;;;;4993431;28;20451;-77
2022/03/25 12:05:37;;;;;;;35.03;32.43;;;25.70;27.80;;;;;;4993435;28;20458;-77
2022/03/25 12:08:27;;;;;;;40.70;37.30;;;25.40;28.50;;;;;;4993903;28;20454;-77
2022/03/25 12:10:55;;;;;;;36.33;33.17;;;25.30;28.40;;;;;;4982976;28;20883;-77
2022/03/25 12:13:23;;;;;;;34.40;31.73;;;25.60;27.80;;;;;;4993034;28;20497;-76
2022/03/25 12:15:53;;;;;;;37.03;33.83;;;25.40;27.10;;;;;;4992966;28;20978;-76
2022/03/25 12:18:44;;;;;;;37.50;34.57;;;26.50;26.80;;;;;;4993131;28;20558;-76
2022/03/25 12:21:29;;;;;;;39.27;36.10;;;27.00;26.90;;;;;;4992649;28;20536;-76
2022/03/25 12:23:57;;;;;;;41.70;38.20;;;27.00;27.30;;;;;;4991867;28;20454;-76
2022/03/25 12:26:31;;;;;;;39.57;36.27;;;26.40;28.10;;;;;;4992360;28;20463;-76
2022/03/25 12:28:58;;;;;;;40.17;36.90;;;26.10;29.00;;;;;;4992544;28;20455;-77
2022/03/25 12:31:26;;;;;;;41.63;38.17;;;26.50;28.60;;;;;;4992764;28;20491;-77
2022/03/25 12:33:53;;;;;;;42.73;39.23;;;25.80;29.10;;;;;;4992216;28;20450;-76
2022/03/25 12:36:20;;;;;;;41.43;37.83;;;25.10;29.80;;;;;;4992708;28;20451;-75
2022/03/25 12:38:47;;;;;;;42.80;39.20;;;25.20;30.00;;;;;;4992570;28;20459;-74
2022/03/25 12:41:26;;;;;;;42.03;38.60;;;26.00;29.90;;;;;;4992275;28;20451;-75
2022/03/25 12:43:57;;;;;;;44.00;40.37;;;26.60;29.30;;;;;;4992228;28;20514;-75
2022/03/25 12:46:26;;;;;;;43.40;39.67;;;27.20;28.80;;;;;;4992317;28;20450;-76
2022/03/25 12:48:53;;;;;;;43.63;39.93;;;27.50;28.40;;;;;;4992172;28;20497;-76
2022/03/25 12:51:22;;;;;;;41.50;38.10;;;26.60;28.70;;;;;;4992287;28;20865;-75
2022/03/25 12:53:49;;;;;;;41.03;37.63;;;26.70;28.50;;;;;;4991780;28;20455;-75
2022/03/25 12:56:16;;;;;;;43.03;39.60;;;26.70;28.60;;;;;;4991790;28;20452;-75
2022/03/25 12:58:43;;;;;;;41.20;37.70;;;26.50;28.70;;;;;;4991912;28;20451;-75
2022/03/25 13:01:16;;;;;;;39.40;35.80;;;26.20;28.70;;;;;;4991706;28;20450;-74
2022/03/25 13:03:46;;;;;;;42.73;39.10;;;26.80;28.70;;;;;;4991552;28;21022;-75
2022/03/25 13:06:14;;;;;;;43.27;39.57;;;27.10;28.30;;;;;;4991634;28;20454;-75
2022/03/25 13:08:41;;;;;;;43.97;40.60;;;27.10;28.10;;;;;;4991496;28;20458;-76
2022/03/25 13:11:08;;;;;;;41.97;38.67;;;27.00;28.20;;;;;;4991780;28;20930;-76
2022/03/25 13:13:38;;;;;;;43.30;39.03;;;27.30;28.30;;;;;;4991952;28;20463;-75
2022/03/25 13:16:07;;;;;;;42.47;39.17;;;28.10;27.80;;;;;;4991826;28;21011;-76
2022/03/25 13:18:37;;;;;;;38.80;35.80;;;28.10;26.50;;;;;;4991759;28;20462;-75
2022/03/25 13:21:07;;;;;;;40.33;37.00;;;27.10;26.50;;;;;;4991872;28;20454;-75
2022/03/25 13:23:34;;;;;;;38.23;35.13;;;26.70;26.90;;;;;;4991761;28;21412;-75
2022/03/25 13:26:02;;;;;;;41.60;38.07;;;26.50;27.40;;;;;;4991353;28;20457;-76
2022/03/25 13:28:31;;;;;;;39.17;36.10;;;26.20;27.80;;;;;;4991362;28;20461;-77
2022/03/25 13:30:59;;;;;;;40.90;37.60;;;26.20;28.20;;;;;;4991149;28;20504;-75
2022/03/25 13:33:27;;;;;;;43.37;39.67;;;26.00;28.20;;;;;;4991793;28;20459;-76
2022/03/25 13:35:57;;;;;;;40.07;36.87;;;26.00;28.50;;;;;;4991552;28;20481;-76
2022/03/25 13:38:26;;;;;;;41.93;38.43;;;26.30;28.20;;;;;;4991393;28;20455;-76
2022/03/25 13:40:55;;;;;;;40.20;36.70;;;26.20;28.40;;;;;;4991905;28;20505;-75
2022/03/25 13:43:24;;;;;;;39.40;35.80;;;25.80;28.80;;;;;;4991976;28;20458;-75
2022/03/25 13:46:00;;;;;;;40.73;37.23;;;25.60;28.50;;;;;;4991908;28;20455;-74
2022/03/25 13:48:35;;;;;;;39.30;36.10;;;25.50;28.70;;;;;;4992164;28;20564;-77
2022/03/25 13:51:02;;;;;;;40.93;37.63;;;25.00;28.50;;;;;;4992097;28;20522;-76
2022/03/25 13:53:34;;;;;;;38.10;35.00;;;24.20;29.00;;;;;;4991723;28;20459;-77
2022/03/25 13:56:17;;;;;;;36.67;33.77;;;24.30;29.40;;;;;;4991610;28;20454;-77
2022/03/25 13:58:49;;;;;;;37.90;35.00;;;25.00;28.50;;;;;;4991411;28;20513;-77
2022/03/25 14:01:18;;;;;;;37.87;34.70;;;25.60;27.90;;;;;;4991958;28;21017;-76
2022/03/25 14:03:45;;;;;;;37.10;33.83;;;25.70;27.90;;;;;;4991419;28;20941;-77
2022/03/25 14:06:13;;;;;;;39.50;36.20;;;25.70;28.10;;;;;;4994608;28;20541;-76
2022/03/25 14:08:42;;;;;;;36.60;33.37;;;25.50;27.80;;;;;;4995451;28;20450;-76
2022/03/25 14:11:12;;;;;;;38.63;35.43;;;24.60;28.80;;;;;;4995373;28;20490;-77
2022/03/25 14:13:56;;;;;;;37.40;34.30;;;23.50;29.20;;;;;;4995294;28;20541;-75
2022/03/25 14:16:26;;;;;;;40.20;36.23;;;22.10;30.10;;;;;;4995381;28;20446;-76
2022/03/25 14:18:54;;;;;;;39.23;35.63;;;21.80;31.10;;;;;;4995162;28;20517;-75
2022/03/25 14:21:25;;;;;;;40.57;37.07;;;21.50;31.50;;;;;;4995180;28;20451;-76
2022/03/25 14:24:30;;;;;;;41.37;37.03;;;21.10;31.80;;;;;;4994946;28;20509;-76
2022/03/25 14:26:41;;;;;;;37.93;34.60;;;20.70;32.10;;;;;;4994937;28;20814;-76
2022/03/25 14:29:08;;;;;;;35.43;32.10;;;20.40;32.50;;;;;;4994821;28;20446;-76
2022/03/25 14:31:35;;;;;;;35.03;31.73;;;20.30;32.90;;;;;;4994658;28;20984;-75
2022/03/25 14:34:02;;;;;;;35.07;31.97;;;20.30;33.10;;;;;;4994522;28;20459;-74
2022/03/25 14:36:29;;;;;;;33.50;30.70;;;20.30;33.00;;;;;;4994590;28;20553;-75
2022/03/25 14:38:57;;;;;;;35.77;32.40;;;20.30;32.70;;;;;;4994657;28;20821;-75
2022/03/25 14:41:27;;;;;;;37.50;34.27;;;20.20;32.90;;;;;;4994409;28;20446;-75
2022/03/25 14:43:55;;;;;;;37.67;34.13;;;20.10;32.80;;;;;;4994477;28;20868;-75
2022/03/25 14:46:22;;;;;;;34.87;31.93;;;20.10;33.10;;;;;;4994422;28;20868;-75
2022/03/25 14:48:49;;;;;;;34.50;31.47;;;20.10;32.60;;;;;;4994589;28;20481;-76
2022/03/25 14:51:15;;;;;;;34.80;31.57;;;20.00;31.80;;;;;;4994237;28;20502;-72
2022/03/25 14:53:42;;;;;;;34.47;31.30;;;20.00;31.80;;;;;;4994652;28;20451;-77
2022/03/25 14:56:10;;;;;;;33.20;30.30;;;20.00;32.00;;;;;;4994343;28;20512;-80
2022/03/25 14:58:37;;;;;;;35.97;32.70;;;20.00;31.60;;;;;;4994655;28;20505;-78
2022/03/25 15:01:04;;;;;;;34.57;31.40;;;19.80;32.00;;;;;;4986079;28;20900;-76
2022/03/25 15:03:31;;;;;;;36.97;33.57;;;19.70;31.80;;;;;;4983276;28;20478;-78
2022/03/25 15:05:57;;;;;;;35.80;32.30;;;19.70;31.90;;;;;;4975387;28;20497;-76
2022/03/25 15:08:25;;;;;;;35.40;32.33;;;19.70;32.00;;;;;;4985869;28;20466;-77
2022/03/25 15:10:51;;;;;;;33.70;30.60;;;19.70;32.10;;;;;;4975061;28;20494;-77
2022/03/25 15:13:19;;;;;;;31.63;28.90;;;19.70;31.50;;;;;;4975032;28;20467;-77
2022/03/25 15:15:46;;;;;;;35.03;31.57;;;19.70;31.30;;;;;;4972639;28;20451;-77
2022/03/25 15:18:13;;;;;;;37.27;33.77;;;19.70;31.60;;;;;;4974021;28;20447;-76
2022/03/25 15:20:41;;;;;;;38.37;34.87;;;19.70;32.40;;;;;;4974396;28;20863;-77
2022/03/25 15:23:08;;;;;;;37.20;33.20;;;19.70;33.30;;;;;;4974168;28;20444;-77
2022/03/25 15:25:35;;;;;;;34.87;31.70;;;19.70;33.70;;;;;;4974405;28;20463;-78
2022/03/25 15:28:02;;;;;;;41.33;37.07;;;19.60;33.60;;;;;;4974249;28;20866;-78
2022/03/25 15:35:59;;;;;;;39.97;36.27;;;19.70;33.80;;;;;;4974032;28;20423;-75
2022/03/25 15:38:26;;;;;;;38.43;34.87;;;19.60;33.80;;;;;;4974032;28;20455;-77
2022/03/25 15:40:53;;;;;;;39.10;35.60;;;19.60;34.20;;;;;;4974240;28;20455;-78
2022/03/25 15:43:20;;;;;;;36.27;32.87;;;19.60;34.10;;;;;;4974620;28;20451;-77
2022/03/25 15:45:48;;;;;;;35.87;32.50;;;19.40;34.00;;;;;;4974240;28;20455;-77
2022/03/25 15:48:15;;;;;;;37.10;33.60;;;19.30;34.10;;;;;;4973962;28;20475;-75
2022/03/25 15:50:42;;;;;;;37.13;33.53;;;19.40;34.10;;;;;;4974611;28;21160;-76
2022/03/25 15:53:09;;;;;;;38.83;34.97;;;19.30;34.30;;;;;;4974052;28;20467;-76
2022/03/25 15:55:36;;;;;;;42.23;33.77;;;19.20;34.60;;;;;;4973888;28;20487;-78
2022/03/25 15:58:03;;;;;;;37.40;34.20;;;19.10;34.50;;;;;;4973964;28;20961;-78
